Time;durP1;ratioP1;P1;durP2;ratioP2;P2;SDS_P1;SDS_P2;PMS_P1;PMS_P2;Temp;Humidity;BMP_temperature;BMP_pressure;BME280_temperature;BME280_humidity;BME280_pressure;Samples;Min_cycle;Max_cycle;Signal;HPM_P1;HPM_P2
2021/09/02 00:00:18;;;;;;;20.80;8.55;;;;;;;;;;5022953;28;20052;-82
2021/09/02 00:02:47;;;;;;;12.60;7.70;;;;;;;;;;5032564;28;20522;-82
2021/09/02 00:05:14;;;;;;;18.08;9.25;;;;;;;;;;5034648;28;20100;-82
2021/09/02 00:07:41;;;;;;;13.90;7.45;;;;;;;;;;5027502;28;20069;-82
2021/09/02 00:10:09;;;;;;;19.17;7.82;;;;;;;;;;5016012;28;20132;-82
2021/09/02 00:12:36;;;;;;;14.88;8.00;;;;;;;;;;5011510;28;20093;-82
2021/09/02 00:15:04;;;;;;;17.70;8.02;;;;;;;;;;5016427;28;20213;-82
2021/09/02 00:17:31;;;;;;;20.20;8.55;;;;;;;;;;5030874;28;20049;-82
2021/09/02 00:19:58;;;;;;;15.13;7.38;;;;;;;;;;5009508;28;20037;-82
2021/09/02 00:22:27;;;;;;;22.10;9.50;;;;;;;;;;4998803;28;20144;-82
2021/09/02 00:24:54;;;;;;;16.83;8.13;;;;;;;;;;4999261;28;20133;-82
2021/09/02 00:27:22;;;;;;;16.27;8.57;;;;;;;;;;5031771;28;20064;-82
2021/09/02 00:29:49;;;;;;;16.85;8.07;;;;;;;;;;5021749;28;20084;-82
2021/09/02 00:32:18;;;;;;;12.70;7.22;;;;;;;;;;5014350;28;20121;-82
2021/09/02 00:34:47;;;;;;;14.52;7.30;;;;;;;;;;5029000;28;20049;-82
2021/09/02 00:37:15;;;;;;;12.85;7.63;;;;;;;;;;5031713;28;20164;-82
2021/09/02 00:39:42;;;;;;;21.25;8.25;;;;;;;;;;5020499;28;20457;-82
2021/09/02 00:42:09;;;;;;;15.52;7.53;;;;;;;;;;5021392;28;20125;-82
2021/09/02 00:44:41;;;;;;;17.08;8.68;;;;;;;;;;5020974;28;20545;-82
2021/09/02 00:47:14;;;;;;;19.08;8.50;;;;;;;;;;5005215;28;20124;-82
2021/09/02 00:49:42;;;;;;;24.40;9.10;;;;;;;;;;5004848;28;20057;-82
2021/09/02 00:52:14;;;;;;;16.58;7.72;;;;;;;;;;4997135;28;20129;-82
2021/09/02 00:54:51;;;;;;;17.90;8.88;;;;;;;;;;5010296;28;20103;-82
2021/09/02 00:57:19;;;;;;;16.65;8.27;;;;;;;;;;5003006;28;20045;-82
2021/09/02 00:59:50;;;;;;;17.88;8.95;;;;;;;;;;5028671;28;20050;-82
2021/09/02 01:02:19;;;;;;;22.65;10.25;;;;;;;;;;5000876;28;20509;-82
2021/09/02 01:04:46;;;;;;;21.13;7.97;;;;;;;;;;5022219;28;20056;-82
2021/09/02 01:07:14;;;;;;;17.25;8.15;;;;;;;;;;5016576;28;20116;-82
2021/09/02 01:09:41;;;;;;;15.63;8.73;;;;;;;;;;5027164;28;20141;-82
2021/09/02 01:12:29;;;;;;;16.30;8.27;;;;;;;;;;5032159;28;20451;-82
2021/09/02 01:14:57;;;;;;;22.85;8.77;;;;;;;;;;5019287;28;20048;-82
2021/09/02 01:17:25;;;;;;;20.65;9.20;;;;;;;;;;5023467;28;20498;-82
2021/09/02 01:19:54;;;;;;;26.52;10.70;;;;;;;;;;5016272;28;20128;-82
2021/09/02 01:22:23;;;;;;;26.65;9.85;;;;;;;;;;4994819;28;20137;-82
2021/09/02 01:24:52;;;;;;;20.88;10.02;;;;;;;;;;4994934;28;20084;-82
2021/09/02 01:27:20;;;;;;;22.00;9.52;;;;;;;;;;5003457;28;20145;-82
2021/09/02 01:29:51;;;;;;;24.02;9.43;;;;;;;;;;5016384;28;20053;-82
2021/09/02 01:32:20;;;;;;;26.20;9.60;;;;;;;;;;5012541;28;20164;-82
2021/09/02 01:34:47;;;;;;;20.35;9.88;;;;;;;;;;5009006;28;20053;-78
2021/09/02 01:37:14;;;;;;;22.65;9.98;;;;;;;;;;5017152;28;20110;-79
2021/09/02 01:39:41;;;;;;;20.75;10.27;;;;;;;;;;5000033;28;20129;-78
2021/09/02 01:42:19;;;;;;;25.60;11.23;;;;;;;;;;5012612;28;20125;-79
2021/09/02 01:45:05;;;;;;;20.30;9.52;;;;;;;;;;4991759;28;20455;-82
2021/09/02 01:47:33;;;;;;;23.42;10.15;;;;;;;;;;5002587;28;20136;-82
2021/09/02 01:50:10;;;;;;;26.92;10.43;;;;;;;;;;5024874;28;20133;-79
2021/09/02 01:52:38;;;;;;;29.05;10.98;;;;;;;;;;4998782;28;20141;-79
2021/09/02 01:55:07;;;;;;;24.42;11.35;;;;;;;;;;5002695;28;20064;-79
2021/09/02 01:57:35;;;;;;;17.23;9.98;;;;;;;;;;5018079;28;20056;-79
2021/09/02 02:00:04;;;;;;;22.38;11.20;;;;;;;;;;5001325;28;20120;-78
2021/09/02 02:02:32;;;;;;;26.48;10.18;;;;;;;;;;5020210;28;20050;-82
2021/09/02 02:05:00;;;;;;;20.50;9.85;;;;;;;;;;5002257;28;20053;-82
2021/09/02 02:07:28;;;;;;;22.67;11.13;;;;;;;;;;5012571;28;20136;-81
2021/09/02 02:09:55;;;;;;;29.45;10.95;;;;;;;;;;5026531;28;20156;-82
2021/09/02 02:12:22;;;;;;;20.95;10.93;;;;;;;;;;5020029;28;20636;-82
2021/09/02 02:14:50;;;;;;;25.08;11.25;;;;;;;;;;5017181;28;20465;-82
2021/09/02 02:17:17;;;;;;;27.77;11.10;;;;;;;;;;5018147;28;20128;-82
2021/09/02 02:19:46;;;;;;;24.13;10.82;;;;;;;;;;5030063;28;20136;-82
2021/09/02 02:22:13;;;;;;;25.10;10.65;;;;;;;;;;5030000;28;20119;-82
2021/09/02 02:24:40;;;;;;;26.45;10.60;;;;;;;;;;5011952;28;20053;-82
2021/09/02 02:27:08;;;;;;;25.75;11.68;;;;;;;;;;5030352;28;20072;-82
2021/09/02 02:29:35;;;;;;;31.77;11.63;;;;;;;;;;5010910;28;20486;-82
2021/09/02 02:32:03;;;;;;;36.47;12.48;;;;;;;;;;5023273;28;20160;-82
2021/09/02 02:34:30;;;;;;;34.08;11.75;;;;;;;;;;5029201;28;20069;-82
2021/09/02 02:36:57;;;;;;;24.00;10.32;;;;;;;;;;5012122;28;20059;-82
2021/09/02 02:39:24;;;;;;;21.63;10.02;;;;;;;;;;5012839;28;20053;-82
2021/09/02 02:41:51;;;;;;;28.98;10.48;;;;;;;;;;5012523;28;20081;-82
2021/09/02 02:44:18;;;;;;;24.40;10.40;;;;;;;;;;5028916;28;20080;-82
2021/09/02 02:46:45;;;;;;;27.52;11.20;;;;;;;;;;5012119;28;20439;-82
2021/09/02 02:49:13;;;;;;;27.60;11.23;;;;;;;;;;5000623;28;20084;-82
2021/09/02 02:51:40;;;;;;;25.20;10.98;;;;;;;;;;5018677;28;20136;-82
2021/09/02 02:54:07;;;;;;;30.40;11.63;;;;;;;;;;4998170;28;20136;-82
2021/09/02 02:56:34;;;;;;;24.77;9.80;;;;;;;;;;5015878;28;20569;-82
2021/09/02 02:59:01;;;;;;;25.38;10.55;;;;;;;;;;5020587;28;20105;-82
2021/09/02 03:01:29;;;;;;;38.92;11.73;;;;;;;;;;5026036;28;20077;-82
2021/09/02 03:03:56;;;;;;;22.15;9.63;;;;;;;;;;5011391;28;20051;-81
2021/09/02 03:06:23;;;;;;;23.52;10.40;;;;;;;;;;5006107;28;20093;-82
2021/09/02 03:08:50;;;;;;;26.38;10.15;;;;;;;;;;5018821;28;20064;-82
2021/09/02 03:11:17;;;;;;;38.22;10.85;;;;;;;;;;5023774;28;20095;-82
2021/09/02 03:13:45;;;;;;;27.00;9.65;;;;;;;;;;4993334;28;20104;-82
2021/09/02 03:16:12;;;;;;;28.23;10.63;;;;;;;;;;5025927;28;20633;-82
2021/09/02 03:18:39;;;;;;;26.85;9.90;;;;;;;;;;5022561;28;20058;-82
2021/09/02 03:21:06;;;;;;;26.40;9.98;;;;;;;;;;4999552;28;20048;-82
2021/09/02 03:23:33;;;;;;;20.35;9.57;;;;;;;;;;5029982;28;20151;-82
2021/09/02 03:26:00;;;;;;;28.35;9.68;;;;;;;;;;5028213;28;20046;-82
2021/09/02 03:28:28;;;;;;;25.75;9.02;;;;;;;;;;5012992;28;20085;-82
2021/09/02 03:30:55;;;;;;;24.20;9.35;;;;;;;;;;5002149;28;20819;-82
2021/09/02 03:33:22;;;;;;;24.42;9.40;;;;;;;;;;5003433;28;20052;-82
2021/09/02 03:35:49;;;;;;;24.05;9.45;;;;;;;;;;5028532;28;20132;-82
2021/09/02 03:38:17;;;;;;;33.60;9.73;;;;;;;;;;5029170;28;20136;-82
2021/09/02 03:40:44;;;;;;;24.98;8.95;;;;;;;;;;5011192;28;20136;-82
2021/09/02 03:43:12;;;;;;;25.63;8.80;;;;;;;;;;5022189;28;20049;-82
2021/09/02 03:45:39;;;;;;;31.35;9.93;;;;;;;;;;5011151;28;20144;-82
2021/09/02 03:48:07;;;;;;;19.10;7.97;;;;;;;;;;5018421;28;20076;-82
2021/09/02 03:50:35;;;;;;;20.35;8.18;;;;;;;;;;5006402;28;20520;-82
2021/09/02 03:53:02;;;;;;;21.55;8.60;;;;;;;;;;5012128;28;20459;-82
2021/09/02 03:55:39;;;;;;;22.92;8.30;;;;;;;;;;5003046;28;20153;-82
2021/09/02 03:58:07;;;;;;;27.90;8.63;;;;;;;;;;5024624;28;20458;-82
2021/09/02 04:00:35;;;;;;;22.15;7.32;;;;;;;;;;5000133;28;20045;-82
2021/09/02 04:03:03;;;;;;;27.58;8.43;;;;;;;;;;5015229;28;20128;-82
2021/09/02 04:05:38;;;;;;;18.48;7.63;;;;;;;;;;5028356;28;20136;-82
2021/09/02 04:08:06;;;;;;;31.17;8.40;;;;;;;;;;5015168;28;20054;-82
2021/09/02 04:10:34;;;;;;;24.52;7.80;;;;;;;;;;5030108;28;20137;-82
2021/09/02 04:13:01;;;;;;;19.77;8.30;;;;;;;;;;5010402;28;20152;-82
2021/09/02 04:15:28;;;;;;;28.30;8.48;;;;;;;;;;5005117;28;20132;-82
2021/09/02 04:17:55;;;;;;;20.42;8.43;;;;;;;;;;5019608;28;20644;-82
2021/09/02 04:20:28;;;;;;;36.47;8.02;;;;;;;;;;5015219;28;20045;-82
2021/09/02 04:22:55;;;;;;;23.27;8.18;;;;;;;;;;5029560;28;20124;-82
2021/09/02 04:25:26;;;;;;;22.23;7.82;;;;;;;;;;5033972;28;20128;-82
2021/09/02 04:27:53;;;;;;;19.85;8.23;;;;;;;;;;5033768;28;20084;-82
2021/09/02 04:30:21;;;;;;;23.15;8.00;;;;;;;;;;5026208;28;20140;-82
2021/09/02 04:32:48;;;;;;;27.73;8.27;;;;;;;;;;5026585;28;20145;-82
2021/09/02 04:35:15;;;;;;;22.60;8.02;;;;;;;;;;5033821;28;20049;-84
2021/09/02 04:37:44;;;;;;;23.77;7.68;;;;;;;;;;4997967;28;20128;-84
2021/09/02 04:40:12;;;;;;;20.05;7.30;;;;;;;;;;5020073;28;20091;-84
2021/09/02 04:42:41;;;;;;;23.40;7.72;;;;;;;;;;5015284;28;20065;-83
2021/09/02 04:45:09;;;;;;;20.58;7.80;;;;;;;;;;5015918;28;20080;-83
2021/09/02 04:47:37;;;;;;;20.98;7.28;;;;;;;;;;5031429;28;20470;-80
2021/09/02 04:50:05;;;;;;;21.70;7.18;;;;;;;;;;5025874;28;20144;-81
2021/09/02 04:52:32;;;;;;;22.08;8.00;;;;;;;;;;5015606;28;20136;-82
2021/09/02 04:54:59;;;;;;;24.50;7.07;;;;;;;;;;5016362;28;20124;-87
2021/09/02 04:57:27;;;;;;;23.88;7.82;;;;;;;;;;5033578;28;20103;-83
2021/09/02 04:59:56;;;;;;;21.20;7.10;;;;;;;;;;5020968;28;20445;-82
2021/09/02 05:02:23;;;;;;;21.80;6.75;;;;;;;;;;5024708;28;20069;-82
2021/09/02 05:07:57;;;;;;;29.45;10.50;;;;;;;;;;5016352;28;20517;-87
2021/09/02 05:10:24;;;;;;;17.38;8.27;;;;;;;;;;5013441;28;20046;-86
2021/09/02 05:12:51;;;;;;;21.55;8.25;;;;;;;;;;5010124;28;20129;-79
2021/09/02 05:15:19;;;;;;;24.52;9.88;;;;;;;;;;5017188;28;20114;-78
2021/09/02 05:17:46;;;;;;;25.15;8.98;;;;;;;;;;5024967;28;20645;-85
2021/09/02 05:20:14;;;;;;;22.67;8.82;;;;;;;;;;5033168;28;20410;-82
2021/09/02 05:22:42;;;;;;;19.27;6.88;;;;;;;;;;5008861;28;20133;-83
2021/09/02 05:25:15;;;;;;;23.50;7.35;;;;;;;;;;5010902;28;20140;-82
2021/09/02 05:27:43;;;;;;;22.08;7.68;;;;;;;;;;5009096;28;20151;-83
2021/09/02 05:32:50;;;;;;;14.95;7.18;;;;;;;;;;5005515;28;20050;-84
2021/09/02 05:35:17;;;;;;;18.45;7.95;;;;;;;;;;5013930;28;20100;-82
2021/09/02 05:37:45;;;;;;;19.80;6.82;;;;;;;;;;4998843;28;20286;-83
2021/09/02 05:40:13;;;;;;;18.60;7.10;;;;;;;;;;4992169;28;20140;-83
2021/09/02 05:42:40;;;;;;;25.17;6.75;;;;;;;;;;5012298;28;20049;-83
2021/09/02 05:45:08;;;;;;;21.27;7.97;;;;;;;;;;5011732;28;20440;-84
2021/09/02 05:47:36;;;;;;;21.15;7.07;;;;;;;;;;5013513;28;20085;-83
2021/09/02 05:50:04;;;;;;;25.80;7.18;;;;;;;;;;5018022;28;20069;-84
2021/09/02 05:52:32;;;;;;;32.05;7.68;;;;;;;;;;5003564;28;20078;-84
2021/09/02 05:55:00;;;;;;;27.15;7.28;;;;;;;;;;5011836;28;20100;-84
2021/09/02 05:57:27;;;;;;;20.38;7.63;;;;;;;;;;5012043;28;20046;-84
2021/09/02 05:59:54;;;;;;;32.70;8.07;;;;;;;;;;5007752;28;20113;-83
2021/09/02 06:02:22;;;;;;;27.48;7.75;;;;;;;;;;5009412;28;20137;-84
2021/09/02 06:04:49;;;;;;;22.88;7.20;;;;;;;;;;5012236;28;20240;-84
2021/09/02 06:07:16;;;;;;;19.38;7.10;;;;;;;;;;5012197;28;20050;-83
2021/09/02 06:09:43;;;;;;;24.13;6.95;;;;;;;;;;5009407;28;20749;-83
2021/09/02 06:12:10;;;;;;;20.10;6.28;;;;;;;;;;4992507;28;20057;-84
2021/09/02 06:14:38;;;;;;;14.82;6.38;;;;;;;;;;5011132;28;20053;-84
2021/09/02 06:17:05;;;;;;;24.83;6.28;;;;;;;;;;5011182;28;20716;-83
2021/09/02 06:19:34;;;;;;;16.25;6.53;;;;;;;;;;5018500;28;20483;-83
2021/09/02 06:22:01;;;;;;;17.42;6.35;;;;;;;;;;5025205;28;20121;-83
2021/09/02 06:24:29;;;;;;;20.65;6.53;;;;;;;;;;5002356;28;20100;-83
2021/09/02 06:26:57;;;;;;;26.10;6.88;;;;;;;;;;5020101;28;20104;-83
2021/09/02 06:29:24;;;;;;;17.58;6.60;;;;;;;;;;5009993;28;20137;-83
2021/09/02 06:31:51;;;;;;;14.10;5.70;;;;;;;;;;5011862;28;20149;-83
2021/09/02 06:34:18;;;;;;;15.45;5.93;;;;;;;;;;4993718;28;20135;-83
2021/09/02 06:36:52;;;;;;;17.80;6.22;;;;;;;;;;5011217;28;20069;-84
2021/09/02 06:39:20;;;;;;;19.23;5.95;;;;;;;;;;5007260;28;20579;-84
2021/09/02 06:41:50;;;;;;;23.63;6.00;;;;;;;;;;4999302;28;20648;-84
2021/09/02 06:44:17;;;;;;;19.88;6.20;;;;;;;;;;4995597;28;20571;-84
2021/09/02 06:46:44;;;;;;;21.60;6.65;;;;;;;;;;4998633;28;20077;-84
2021/09/02 06:49:13;;;;;;;17.60;6.38;;;;;;;;;;4988627;28;20160;-85
2021/09/02 06:51:41;;;;;;;21.55;6.35;;;;;;;;;;5022222;28;20117;-85
2021/09/02 06:54:09;;;;;;;15.05;6.32;;;;;;;;;;5004548;28;20077;-85
2021/09/02 06:56:36;;;;;;;21.90;5.65;;;;;;;;;;5014653;28;20470;-84
2021/09/02 06:59:03;;;;;;;20.95;6.50;;;;;;;;;;4994328;28;20820;-85
2021/09/02 07:01:31;;;;;;;21.70;5.72;;;;;;;;;;5010470;28;20053;-85
2021/09/02 07:03:58;;;;;;;18.63;5.75;;;;;;;;;;4994119;28;20050;-85
2021/09/02 07:06:25;;;;;;;18.95;6.10;;;;;;;;;;4993460;28;20042;-85
2021/09/02 07:08:52;;;;;;;21.60;7.07;;;;;;;;;;5011518;28;20142;-85
2021/09/02 07:11:20;;;;;;;22.08;6.18;;;;;;;;;;5011118;28;20085;-85
2021/09/02 07:13:50;;;;;;;19.88;6.50;;;;;;;;;;4994249;28;20133;-85
2021/09/02 07:16:17;;;;;;;18.88;5.90;;;;;;;;;;5011242;28;20092;-84
2021/09/02 07:18:45;;;;;;;22.63;6.15;;;;;;;;;;5017699;28;20104;-84
2021/09/02 07:21:12;;;;;;;19.08;6.32;;;;;;;;;;5017069;28;20068;-84
2021/09/02 07:23:40;;;;;;;17.92;6.82;;;;;;;;;;5003898;28;20053;-87
2021/09/02 07:26:07;;;;;;;19.77;6.75;;;;;;;;;;5017923;28;20090;-88
2021/09/02 07:28:35;;;;;;;22.30;7.90;;;;;;;;;;5009889;28;20093;-88
2021/09/02 07:31:02;;;;;;;15.23;6.32;;;;;;;;;;5009995;28;20093;-87
2021/09/02 07:33:29;;;;;;;21.42;7.15;;;;;;;;;;4993588;28;20558;-88
2021/09/02 07:35:57;;;;;;;18.35;6.30;;;;;;;;;;5015907;28;20502;-89
2021/09/02 07:38:24;;;;;;;26.25;7.18;;;;;;;;;;4994028;28;20045;-87
2021/09/02 07:40:51;;;;;;;28.55;6.80;;;;;;;;;;5012175;28;20081;-88
2021/09/02 07:43:27;;;;;;;65.63;10.93;;;;;;;;;;4994358;28;20791;-85
2021/09/02 07:45:54;;;;;;;32.33;7.53;;;;;;;;;;5012261;28;20137;-85
2021/09/02 07:48:30;;;;;;;18.55;6.30;;;;;;;;;;5020704;28;20415;-88
2021/09/02 07:50:57;;;;;;;22.17;5.90;;;;;;;;;;5007840;28;20049;-85
2021/09/02 07:53:24;;;;;;;18.88;6.43;;;;;;;;;;5014672;28;20499;-87
2021/09/02 07:55:52;;;;;;;29.90;9.65;;;;;;;;;;5021665;28;20414;-87
2021/09/02 07:58:19;;;;;;;15.60;6.55;;;;;;;;;;4996792;28;20129;-88
2021/09/02 08:00:59;;;;;;;19.50;7.15;;;;;;;;;;5014673;28;20099;-87
2021/09/02 08:03:27;;;;;;;48.30;7.80;;;;;;;;;;5014576;28;20049;-87
2021/09/02 08:05:54;;;;;;;28.60;5.95;;;;;;;;;;5013328;28;20054;-86
2021/09/02 08:08:25;;;;;;;22.42;7.65;;;;;;;;;;5014063;28;20124;-86
2021/09/02 08:10:53;;;;;;;24.67;7.05;;;;;;;;;;5014529;28;20073;-86
2021/09/02 08:13:20;;;;;;;18.52;5.75;;;;;;;;;;5019463;28;20089;-86
2021/09/02 08:15:51;;;;;;;20.95;6.57;;;;;;;;;;4994496;28;20050;-85
2021/09/02 08:18:18;;;;;;;17.98;7.38;;;;;;;;;;5010088;28;20056;-85
2021/09/02 08:20:59;;;;;;;18.70;7.05;;;;;;;;;;5013359;28;20553;-86
2021/09/02 08:23:26;;;;;;;20.65;6.20;;;;;;;;;;5004601;28;20077;-86
2021/09/02 08:25:53;;;;;;;20.88;6.70;;;;;;;;;;5012708;28;20038;-86
2021/09/02 08:28:20;;;;;;;44.95;8.55;;;;;;;;;;5030330;28;20133;-86
2021/09/02 08:30:47;;;;;;;20.98;6.70;;;;;;;;;;5028481;28;20132;-86
2021/09/02 08:33:15;;;;;;;30.25;7.30;;;;;;;;;;4995538;28;20050;-86
2021/09/02 08:35:45;;;;;;;21.45;6.07;;;;;;;;;;5021130;28;21726;-86
2021/09/02 08:38:13;;;;;;;26.70;8.23;;;;;;;;;;5014041;28;20085;-86
2021/09/02 08:40:41;;;;;;;21.80;6.07;;;;;;;;;;5013680;28;20125;-86
2021/09/02 08:43:09;;;;;;;22.17;6.63;;;;;;;;;;4995638;28;20057;-86
2021/09/02 08:45:36;;;;;;;23.65;9.52;;;;;;;;;;5012279;28;20124;-86
2021/09/02 08:48:09;;;;;;;28.67;9.65;;;;;;;;;;5013054;28;20116;-86
2021/09/02 08:50:38;;;;;;;21.60;8.25;;;;;;;;;;4996482;28;20899;-86
2021/09/02 08:53:06;;;;;;;23.70;10.18;;;;;;;;;;5017398;28;20077;-86
2021/09/02 08:55:35;;;;;;;36.55;10.82;;;;;;;;;;4995735;28;20462;-86
2021/09/02 08:58:02;;;;;;;29.98;10.10;;;;;;;;;;5012661;28;20104;-85
2021/09/02 09:00:29;;;;;;;32.97;11.60;;;;;;;;;;4995814;28;20060;-86
2021/09/02 09:02:58;;;;;;;36.03;12.27;;;;;;;;;;5013495;28;20054;-86
2021/09/02 09:05:27;;;;;;;41.13;14.98;;;;;;;;;;5006875;28;20053;-86
2021/09/02 09:07:55;;;;;;;49.05;22.10;;;;;;;;;;5000903;28;20140;-86
2021/09/02 09:10:27;;;;;;;31.73;10.13;;;;;;;;;;4993719;28;20050;-86
2021/09/02 09:13:17;;;;;;;22.45;8.60;;;;;;;;;;5013347;28;20454;-86
2021/09/02 09:15:45;;;;;;;27.25;8.25;;;;;;;;;;5011724;28;20129;-86
2021/09/02 09:18:14;;;;;;;23.50;7.43;;;;;;;;;;5019027;28;20128;-86
2021/09/02 09:20:41;;;;;;;27.17;7.80;;;;;;;;;;5023587;28;20132;-87
2021/09/02 09:23:08;;;;;;;31.35;8.85;;;;;;;;;;5020869;28;20124;-86
2021/09/02 09:25:35;;;;;;;21.10;8.48;;;;;;;;;;5010983;28;20131;-86
2021/09/02 09:28:03;;;;;;;20.75;7.30;;;;;;;;;;5007521;28;20563;-86
2021/09/02 09:30:31;;;;;;;27.25;7.72;;;;;;;;;;5012555;28;20081;-86
2021/09/02 09:32:59;;;;;;;25.88;7.78;;;;;;;;;;5011722;28;20128;-87
2021/09/02 09:35:29;;;;;;;28.08;8.52;;;;;;;;;;5012128;28;20144;-87
2021/09/02 09:38:07;;;;;;;16.75;6.63;;;;;;;;;;4993853;28;20046;-86
2021/09/02 09:40:36;;;;;;;22.77;7.07;;;;;;;;;;4976126;28;20051;-86
2021/09/02 09:43:12;;;;;;;17.75;7.05;;;;;;;;;;4993144;28;20042;-86
2021/09/02 09:45:43;;;;;;;22.17;6.80;;;;;;;;;;4995355;28;20558;-86
2021/09/02 09:48:22;;;;;;;23.65;7.22;;;;;;;;;;4994830;28;20179;-86
2021/09/02 09:51:08;;;;;;;20.20;7.20;;;;;;;;;;5025783;28;20108;-86
2021/09/02 09:53:41;;;;;;;;;;;;;;;;;;5017231;28;20053;-86
2021/09/02 09:56:09;;;;;;;23.58;7.45;;;;;;;;;;5002022;28;20447;-86
2021/09/02 09:58:39;;;;;;;17.77;7.18;;;;;;;;;;5012113;28;20597;-86
2021/09/02 10:01:06;;;;;;;13.25;6.32;;;;;;;;;;5010900;28;20479;-87
2021/09/02 10:03:35;;;;;;;27.20;7.78;;;;;;;;;;4994818;28;20056;-86
2021/09/02 10:06:04;;;;;;;21.52;7.35;;;;;;;;;;5011146;28;20151;-86
2021/09/02 10:08:38;;;;;;;32.33;7.63;;;;;;;;;;4994836;28;20552;-86
2021/09/02 10:11:07;;;;;;;29.30;8.00;;;;;;;;;;5011269;28;20494;-86
2021/09/02 10:13:34;;;;;;;17.27;6.95;;;;;;;;;;4993546;28;20050;-86
2021/09/02 10:16:02;;;;;;;23.20;7.32;;;;;;;;;;4986495;28;20673;-86
2021/09/02 10:18:31;;;;;;;21.42;6.82;;;;;;;;;;5003884;28;20052;-86
2021/09/02 10:21:03;;;;;;;21.58;7.20;;;;;;;;;;5017637;28;20811;-85
2021/09/02 10:23:31;;;;;;;23.60;6.70;;;;;;;;;;5010885;28;20129;-85
2021/09/02 10:25:59;;;;;;;16.75;6.90;;;;;;;;;;5016842;28;20053;-86
2021/09/02 10:28:30;;;;;;;19.73;7.00;;;;;;;;;;4994303;28;20153;-86
2021/09/02 10:31:04;;;;;;;16.40;7.13;;;;;;;;;;4993067;28;20082;-86
2021/09/02 10:33:48;;;;;;;25.30;7.00;;;;;;;;;;5009524;28;20451;-86
2021/09/02 10:36:16;;;;;;;18.75;6.25;;;;;;;;;;4994264;28;20133;-86
2021/09/02 10:38:52;;;;;;;22.63;7.10;;;;;;;;;;5011298;28;20558;-87
2021/09/02 10:41:39;;;;;;;21.77;7.20;;;;;;;;;;4995228;28;20419;-86
2021/09/02 10:44:08;;;;;;;20.85;7.70;;;;;;;;;;4994735;28;20045;-87
2021/09/02 10:46:36;;;;;;;18.95;7.57;;;;;;;;;;5010525;28;20209;-86
2021/09/02 10:49:23;;;;;;;25.88;6.97;;;;;;;;;;5021262;28;20053;-86
2021/09/02 10:51:58;;;;;;;26.58;9.07;;;;;;;;;;5009298;28;20057;-87
2021/09/02 10:54:30;;;;;;;23.00;8.23;;;;;;;;;;5017898;28;20821;-86
2021/09/02 10:56:59;;;;;;;17.30;7.50;;;;;;;;;;5010635;28;20341;-86
2021/09/02 10:59:41;;;;;;;21.83;7.50;;;;;;;;;;4995066;28;20049;-86
2021/09/02 11:02:09;;;;;;;22.65;7.07;;;;;;;;;;5011862;28;20089;-87
2021/09/02 11:04:39;;;;;;;22.38;6.65;;;;;;;;;;5011315;28;20769;-87
2021/09/02 11:07:06;;;;;;;19.90;7.38;;;;;;;;;;4994159;28;20495;-87
2021/09/02 11:09:34;;;;;;;21.20;6.68;;;;;;;;;;5011930;28;20096;-87
2021/09/02 11:12:05;;;;;;;14.10;6.22;;;;;;;;;;5012444;28;20125;-87
2021/09/02 11:14:39;;;;;;;21.02;7.07;;;;;;;;;;4991928;28;20054;-87
2021/09/02 11:17:09;;;;;;;19.48;6.97;;;;;;;;;;4991817;28;20042;-87
2021/09/02 11:19:38;;;;;;;23.80;7.70;;;;;;;;;;5020300;28;20136;-87
2021/09/02 11:22:10;;;;;;;20.20;7.05;;;;;;;;;;5014141;28;20081;-86
2021/09/02 11:24:38;;;;;;;17.55;7.22;;;;;;;;;;5016251;28;20085;-87
2021/09/02 11:27:05;;;;;;;20.17;6.90;;;;;;;;;;5014902;28;20049;-87
2021/09/02 11:29:35;;;;;;;18.15;6.75;;;;;;;;;;5014951;28;20109;-87
2021/09/02 11:32:13;;;;;;;17.90;7.55;;;;;;;;;;5003327;28;20108;-87
2021/09/02 11:34:40;;;;;;;19.42;6.82;;;;;;;;;;5015618;28;20491;-86
2021/09/02 11:37:08;;;;;;;19.10;6.90;;;;;;;;;;5004362;28;20050;-87
2021/09/02 11:39:39;;;;;;;22.33;7.70;;;;;;;;;;5002927;28;20534;-87
2021/09/02 11:42:08;;;;;;;20.35;6.75;;;;;;;;;;4998829;28;20704;-87
2021/09/02 11:44:36;;;;;;;19.08;7.03;;;;;;;;;;5012955;28;20137;-88
2021/09/02 11:47:05;;;;;;;15.95;6.82;;;;;;;;;;5014031;28;20736;-87
2021/09/02 11:49:38;;;;;;;16.08;6.82;;;;;;;;;;5028033;28;20133;-87
2021/09/02 11:52:06;;;;;;;25.25;7.15;;;;;;;;;;5014313;28;20046;-87
2021/09/02 11:54:34;;;;;;;18.40;7.15;;;;;;;;;;4993008;28;20131;-87
2021/09/02 11:57:02;;;;;;;21.85;6.40;;;;;;;;;;5015223;28;20065;-88
2021/09/02 11:59:30;;;;;;;18.35;7.78;;;;;;;;;;5014071;28;20474;-88
2021/09/02 12:01:58;;;;;;;16.95;7.03;;;;;;;;;;5014424;28;20143;-87
2021/09/02 12:04:27;;;;;;;29.88;7.07;;;;;;;;;;4996062;28;20050;-88
2021/09/02 12:06:59;;;;;;;20.85;6.78;;;;;;;;;;5005521;28;20125;-85
2021/09/02 12:09:32;;;;;;;20.70;6.82;;;;;;;;;;5014604;28;20501;-85
2021/09/02 12:11:59;;;;;;;15.25;6.55;;;;;;;;;;5015706;28;20042;-86
2021/09/02 12:14:32;;;;;;;13.57;6.70;;;;;;;;;;4992523;28;20645;-86
2021/09/02 12:17:01;;;;;;;17.90;7.25;;;;;;;;;;5008312;28;20081;-85
2021/09/02 12:19:30;;;;;;;18.77;7.72;;;;;;;;;;5008096;28;20488;-85
2021/09/02 12:22:13;;;;;;;18.98;7.65;;;;;;;;;;5014576;28;20224;-86
2021/09/02 12:24:40;;;;;;;25.50;7.57;;;;;;;;;;5007405;28;20114;-83
2021/09/02 12:27:08;;;;;;;21.63;7.68;;;;;;;;;;4992648;28;20135;-81
2021/09/02 12:29:56;;;;;;;22.80;7.13;;;;;;;;;;5015040;28;20084;-89
2021/09/02 12:32:23;;;;;;;15.68;6.78;;;;;;;;;;5008134;28;20133;-81
2021/09/02 12:34:50;;;;;;;17.63;6.80;;;;;;;;;;5009654;28;20503;-82
2021/09/02 12:37:19;;;;;;;20.90;6.35;;;;;;;;;;5007081;28;20142;-81
2021/09/02 12:39:53;;;;;;;16.67;6.93;;;;;;;;;;5012952;28;20442;-81
2021/09/02 12:42:25;;;;;;;17.48;7.75;;;;;;;;;;5013050;28;20050;-82
2021/09/02 12:45:09;;;;;;;15.90;6.68;;;;;;;;;;5015147;28;20133;-82
2021/09/02 12:47:37;;;;;;;17.63;6.40;;;;;;;;;;5013290;28;20088;-81
2021/09/02 12:50:13;;;;;;;25.15;7.97;;;;;;;;;;4993220;28;20046;-82
2021/09/02 12:52:48;;;;;;;17.95;7.75;;;;;;;;;;5019103;28;20611;-82
2021/09/02 12:55:19;;;;;;;21.07;6.73;;;;;;;;;;5009623;28;20157;-81
2021/09/02 12:57:48;;;;;;;19.55;7.18;;;;;;;;;;5009032;28;20088;-82
2021/09/02 13:00:18;;;;;;;14.73;6.57;;;;;;;;;;5013335;28;20120;-80
2021/09/02 13:02:47;;;;;;;19.88;7.18;;;;;;;;;;5005005;28;20077;-82
2021/09/02 13:05:15;;;;;;;20.02;7.05;;;;;;;;;;5013205;28;20108;-81
2021/09/02 13:07:43;;;;;;;20.38;6.30;;;;;;;;;;5013862;28;20089;-81
2021/09/02 13:10:10;;;;;;;18.08;6.18;;;;;;;;;;4996097;28;20081;-82
2021/09/02 13:12:38;;;;;;;18.15;7.95;;;;;;;;;;4996226;28;20071;-80
2021/09/02 13:15:21;;;;;;;19.83;8.80;;;;;;;;;;5012850;28;20129;-81
2021/09/02 13:17:48;;;;;;;14.35;7.15;;;;;;;;;;5010365;28;20136;-82
2021/09/02 13:20:16;;;;;;;21.40;7.72;;;;;;;;;;5014188;28;20050;-83
2021/09/02 13:22:43;;;;;;;17.65;7.28;;;;;;;;;;5015212;28;20128;-79
2021/09/02 13:25:11;;;;;;;18.58;6.78;;;;;;;;;;5018663;28;20141;-80
2021/09/02 13:27:39;;;;;;;21.15;8.05;;;;;;;;;;5013439;28;20092;-80
2021/09/02 13:30:07;;;;;;;23.25;6.88;;;;;;;;;;5013391;28;20455;-81
2021/09/02 13:32:36;;;;;;;16.83;6.63;;;;;;;;;;5013119;28;20069;-79
2021/09/02 13:35:05;;;;;;;14.00;7.05;;;;;;;;;;5013059;28;20061;-81
2021/09/02 13:37:34;;;;;;;15.02;7.13;;;;;;;;;;5005154;28;20140;-80
2021/09/02 13:40:06;;;;;;;16.42;7.47;;;;;;;;;;4996976;28;20050;-80
2021/09/02 13:42:35;;;;;;;23.90;7.30;;;;;;;;;;5008895;28;20066;-80
2021/09/02 13:45:03;;;;;;;21.33;8.38;;;;;;;;;;5004487;28;20464;-79
2021/09/02 13:47:30;;;;;;;30.33;7.68;;;;;;;;;;5008966;28;20165;-80
2021/09/02 13:49:57;;;;;;;17.88;6.93;;;;;;;;;;4996168;28;20216;-84
2021/09/02 13:52:24;;;;;;;20.67;7.00;;;;;;;;;;5001943;28;20151;-78
2021/09/02 13:54:52;;;;;;;19.85;6.88;;;;;;;;;;5021312;28;20076;-80
2021/09/02 13:57:21;;;;;;;19.80;6.80;;;;;;;;;;5012875;28;20141;-80
2021/09/02 13:59:49;;;;;;;15.68;6.95;;;;;;;;;;5013022;28;20089;-82
2021/09/02 14:02:17;;;;;;;23.55;9.05;;;;;;;;;;4995395;28;20105;-81
2021/09/02 14:04:45;;;;;;;19.50;7.65;;;;;;;;;;5009602;28;20080;-82
2021/09/02 14:07:12;;;;;;;14.73;6.93;;;;;;;;;;5012024;28;20128;-82
2021/09/02 14:09:42;;;;;;;19.42;7.28;;;;;;;;;;4996888;28;20081;-81
2021/09/02 14:12:09;;;;;;;16.05;6.53;;;;;;;;;;5004330;28;20498;-81
2021/09/02 14:14:36;;;;;;;21.13;8.07;;;;;;;;;;5012106;28;20073;-81
2021/09/02 14:17:03;;;;;;;20.08;7.43;;;;;;;;;;5012658;28;20046;-80
2021/09/02 14:19:30;;;;;;;19.92;7.40;;;;;;;;;;5016047;28;20046;-81
2021/09/02 14:22:06;;;;;;;18.67;7.18;;;;;;;;;;5002751;28;20454;-80
2021/09/02 14:24:33;;;;;;;18.42;7.57;;;;;;;;;;5021790;28;20077;-81
2021/09/02 14:27:00;;;;;;;18.30;7.57;;;;;;;;;;5011809;28;20060;-81
2021/09/02 14:29:28;;;;;;;15.73;6.97;;;;;;;;;;5007775;28;20096;-81
2021/09/02 14:31:58;;;;;;;18.83;7.80;;;;;;;;;;4997813;28;20050;-81
2021/09/02 14:34:25;;;;;;;19.55;7.63;;;;;;;;;;5012273;28;20132;-81
2021/09/02 14:36:52;;;;;;;15.05;6.88;;;;;;;;;;5011424;28;20078;-81
2021/09/02 14:39:19;;;;;;;16.42;7.43;;;;;;;;;;5004562;28;20110;-81
2021/09/02 14:41:46;;;;;;;24.23;7.70;;;;;;;;;;4993251;28;20070;-81
2021/09/02 14:44:13;;;;;;;16.33;7.43;;;;;;;;;;4990224;28;20144;-80